EDDHEDDG

Guest
Details From EDDH - Hamburg
To EDDG - Muenster Osnabrueck
Flight Number -
Tags Generated
Created
Modified
Stats Distance 124 nm / 229 km
Max Altitude 0 ft / 0 m
Waypoints 2
Social Downloads 0
Likes 0
Share VATSIM

Download

Looking for another format? Having issues loading an existing format? Contact us
Advertisement - Login to hide

Notes

Generated

Route

EDDH EDDG

ID Type Via Altitude Latitude Longitude Leg Dist Tot Dist Heading (true) Name
O EDDH APT - 0 ft / 0 m 53.65441˚ 9.97521˚ - 0 nm - -
O EDDG APT - 0 ft / 0 m 52.13151˚ 7.67006˚ 123 nm 123 nm 223° / 221° -

Altitude Profile

Advertisement - Login to hide

EDDH

Details ICAO EDDH (HAM)
Name Hamburg
Region Germany - Civil
Timezone Europe/Berlin (UTC+2.0)
Stats Elevation 53 ft / 16 m (AMSL)
Location 53.633665° 9.985235°
Runways 2
Magnetic Variation 2.848° E

METAR

EDDH 250720Z 07010KT CAVOK 20/11 Q1022 NOSIG

Decode

TAF

TAF EDDH 250500Z 2506/2612 08008KT CAVOK BECMG 2507/2509 07013KT TEMPO 2510/2517 08015G25KT BECMG 2518/2520 06005KT BECMG 2608/2610 06010KT

Decode

Departure Runways

ID Width Length Bearing (true) Bearing (mag) Surface Threshold Offset Overrun Length
05 151 ft / 46 m 10,647 ft / 3,245 m 50.18° 47.33° Asphalt 978 ft / 298 m 194 ft / 59 m
15 151 ft / 46 m 12,013 ft / 3,662 m 152.89° 150.04° Asphalt 0 ft / 0 m 194 ft / 59 m
23 151 ft / 46 m 10,647 ft / 3,245 m 230.22° 227.37° Asphalt 509 ft / 155 m 240 ft / 73 m
33 151 ft / 46 m 12,013 ft / 3,662 m 332.91° 330.06° Asphalt 1,463 ft / 446 m 164 ft / 50 m

EDDG

Details ICAO EDDG (FMO)
Name Muenster Osnabrueck
Region Germany - Civil
Timezone Europe/Berlin (UTC+2.0)
Stats Elevation 159 ft / 48 m (AMSL)
Location 52.134580° 7.684669°
Runways 1
Magnetic Variation 2.130° E

METAR

EDDG 250720Z VRB05KT CAVOK 19/14 Q1019 NOSIG

Decode

TAF

TAF EDDG 250500Z 2506/2606 10005KT CAVOK

Decode

Destination Runways

ID Width Length Bearing (true) Bearing (mag) Surface Threshold Offset Overrun Length
07 148 ft / 45 m 7,303 ft / 2,226 m 70.93° 68.80° Asphalt 151 ft / 46 m 0 ft / 0 m
25 148 ft / 45 m 7,303 ft / 2,226 m 250.96° 248.83° Asphalt 292 ft / 89 m 0 ft / 0 m

Approach Navaids

Runway Type Ident Frequency Range Bearing (true) Bearing (mag) Slope Elevation
07 Localiser IMOE 111.90 MHz 18 nm / 33 km 70.93° 68.80° - 156 ft / 48 m (AMSL)
07 Glidescope IMOE 111.90 MHz 10 nm / 19 km 70.95° 68.82° 3.00° 156 ft / 48 m (AMSL)
25 Localiser IMOW 110.10 MHz 18 nm / 33 km 251.02° 248.89° - 159 ft / 48 m (AMSL)
25 Glidescope IMOW 110.10 MHz 10 nm / 19 km 250.95° 248.82° 3.00° 159 ft / 48 m (AMSL)

Popular Alternatives